Time;durP1;ratioP1;P1;durP2;ratioP2;P2;SDS_P1;SDS_P2;PMS_P1;PMS_P2;Temp;Humidity;BMP_temperature;BMP_pressure;BME280_temperature;BME280_humidity;BME280_pressure;Samples;Min_cycle;Max_cycle;Signal;HPM_P1;HPM_P2
2022/09/07 00:03:54;;;;;;;0.65;0.65;;;;;;;18.85;68.51;100699.62;18368317;32;20162;-57
2022/09/07 00:13:57;;;;;;;1.75;0.65;;;;;;;18.91;68.10;100699.44;18353763;32;20101;-57
2022/09/07 00:24:03;;;;;;;0.20;0.20;;;;;;;18.80;68.24;100701.56;18367877;32;20144;-57
2022/09/07 00:34:06;;;;;;;0.77;0.37;;;;;;;18.62;68.62;100687.13;18367140;32;20123;-57
2022/09/07 00:44:47;;;;;;;0.50;0.43;;;;;;;18.63;68.23;100679.16;18366957;32;20089;-57
2022/09/07 00:54:54;;;;;;;0.75;0.50;;;;;;;18.55;68.11;100679.41;18366692;32;20092;-57
2022/09/07 01:05:01;;;;;;;0.28;0.28;;;;;;;18.55;67.71;100673.25;18366548;32;20090;-57
2022/09/07 01:15:12;;;;;;;0.32;0.32;;;;;;;18.30;68.25;100666.06;18366103;32;20120;-57
2022/09/07 01:25:28;;;;;;;2.45;1.15;;;;;;;18.14;68.79;100668.31;18366229;32;20127;-57
2022/09/07 01:35:40;;;;;;;0.20;0.20;;;;;;;18.32;68.26;100663.38;18365710;32;20100;-57
2022/09/07 01:45:45;;;;;;;0.45;0.30;;;;;;;18.28;68.33;100657.31;18365614;32;20161;-57
2022/09/07 01:55:53;;;;;;;0.47;0.47;;;;;;;18.02;68.85;100657.16;18366261;32;20129;-57
2022/09/07 02:05:59;;;;;;;1.58;0.60;;;;;;;18.07;68.29;100649.12;18364501;32;20104;-57
2022/09/07 02:16:06;;;;;;;1.15;0.47;;;;;;;18.03;67.70;100647.47;18364808;32;20089;-57
2022/09/07 02:26:13;;;;;;;0.20;0.20;;;;;;;17.69;69.37;100651.06;18365316;32;20172;-57
2022/09/07 02:36:21;;;;;;;2.05;0.68;;;;;;;17.57;68.59;100631.16;18363315;32;20109;-57
2022/09/07 02:46:31;;;;;;;0.65;0.65;;;;;;;17.61;67.86;100633.66;18349028;32;20115;-56
2022/09/07 02:56:46;;;;;;;0.60;0.60;;;;;;;17.45;68.22;100633.22;18362529;32;20518;-57
2022/09/07 03:06:53;;;;;;;0.32;0.32;;;;;;;17.38;68.59;100625.53;18361497;32;20110;-56
2022/09/07 03:16:57;;;;;;;0.55;0.50;;;;;;;17.38;68.36;100626.38;18364765;32;20158;-56
2022/09/07 03:27:01;;;;;;;0.43;0.43;;;;;;;17.32;68.74;100619.50;18369259;32;20100;-57
2022/09/07 03:37:05;;;;;;;0.20;0.20;;;;;;;17.26;68.86;100627.59;18369225;32;20097;-56
2022/09/07 03:47:08;;;;;;;0.30;0.30;;;;;;;17.29;68.44;100627.50;18423573;32;20090;-56
2022/09/07 03:57:13;;;;;;;0.73;0.30;;;;;;;17.32;67.72;100631.84;18415214;32;20112;-57
2022/09/07 04:07:17;;;;;;;1.37;1.05;;;;;;;17.21;68.25;100626.84;18397820;32;20107;-56
2022/09/07 04:17:21;;;;;;;0.93;0.68;;;;;;;17.25;67.84;100644.31;18432786;32;20485;-56
2022/09/07 04:27:25;;;;;;;0.40;0.40;;;;;;;17.04;68.78;100636.03;18430857;32;20258;-57
2022/09/07 04:37:29;;;;;;;0.52;0.40;;;;;;;17.17;68.47;100659.50;18415481;32;20093;-56
2022/09/07 04:47:33;;;;;;;0.25;0.25;;;;;;;17.28;68.86;100662.72;18432231;32;20092;-57
2022/09/07 04:57:38;;;;;;;0.45;0.45;;;;;;;17.53;69.09;100653.28;18430607;32;20089;-57
2022/09/07 05:07:41;;;;;;;0.75;0.50;;;;;;;17.60;69.81;100662.75;18381869;32;20085;-56
2022/09/07 05:17:46;;;;;;;1.20;0.65;;;;;;;17.89;70.14;100648.72;18366416;32;20454;-57
2022/09/07 05:27:49;;;;;;;0.20;0.20;;;;;;;18.15;69.88;100655.06;18366070;32;20408;-57
2022/09/07 05:37:54;;;;;;;1.02;0.57;;;;;;;18.76;69.43;100662.91;18375060;32;20096;-57
2022/09/07 05:47:57;;;;;;;0.20;0.20;;;;;;;20.22;67.02;100669.31;18389325;32;20658;-57
2022/09/07 05:58:02;;;;;;;1.10;1.00;;;;;;;21.86;61.79;100678.59;18430885;32;20085;-57
2022/09/07 06:08:05;;;;;;;0.45;0.30;;;;;;;23.36;57.35;100678.56;18398530;32;20112;-57
2022/09/07 06:18:10;;;;;;;0.20;0.20;;;;;;;24.68;54.33;100670.63;18363704;32;20098;-57
2022/09/07 06:28:13;;;;;;;0.90;0.40;;;;;;;25.50;51.39;100667.66;18393847;32;20419;-57
2022/09/07 06:38:18;;;;;;;0.80;0.40;;;;;;;25.65;49.67;100651.63;18395763;32;20093;-57
2022/09/07 06:48:21;;;;;;;1.00;1.00;;;;;;;26.23;47.80;100654.28;18429231;32;20119;-57
2022/09/07 06:58:26;;;;;;;0.10;0.10;;;;;;;26.72;45.39;100664.44;18429508;32;20381;-57
2022/09/07 07:08:29;;;;;;;0.70;0.35;;;;;;;26.66;46.07;100659.53;18428528;32;20102;-57
2022/09/07 07:18:34;;;;;;;0.13;0.13;;;;;;;26.50;45.47;100648.09;18427225;32;20115;-57
2022/09/07 07:28:38;;;;;;;0.85;0.73;;;;;;;25.71;47.18;100660.13;18418122;32;20108;-58
2022/09/07 07:39:04;;;;;;;0.52;0.30;;;;;;;25.63;46.73;100662.41;18480638;32;20109;-57
2022/09/07 07:49:08;;;;;;;0.10;0.10;;;;;;;25.24;48.03;100662.06;18487098;32;20104;-58
2022/09/07 07:59:12;;;;;;;0.70;0.32;;;;;;;26.07;46.43;100660.56;18487687;32;20108;-57
2022/09/07 08:09:18;;;;;;;0.60;0.60;;;;;;;26.07;47.42;100655.22;18481552;32;20108;-58
2022/09/07 08:19:23;;;;;;;1.35;0.62;;;;;;;26.35;46.57;100650.81;18376583;32;20093;-58
2022/09/07 08:29:26;;;;;;;0.30;0.30;;;;;;;26.41;46.46;100642.38;18367925;32;20116;-57
2022/09/07 08:39:31;;;;;;;0.20;0.20;;;;;;;26.58;47.07;100637.75;18447193;32;20380;-58
2022/09/07 08:49:41;;;;;;;0.10;0.10;;;;;;;26.69;45.68;100629.84;18496467;32;20108;-57
2022/09/07 08:59:46;;;;;;;;;;;;;;;27.14;45.31;100639.41;18481253;32;20136;-58
2022/09/07 09:10:12;;;;;;;0.30;0.30;;;;;;;26.71;44.98;100621.72;18494608;32;20252;-57
2022/09/07 09:20:24;;;;;;;0.65;0.20;;;;;;;27.16;43.61;100613.37;18435930;32;20172;-57
2022/09/07 09:30:28;;;;;;;0.22;0.22;;;;;;;27.81;44.26;100608.84;18429908;32;20674;-57
2022/09/07 09:40:34;;;;;;;0.17;0.17;;;;;;;28.36;41.70;100597.75;18483179;32;20120;-58
2022/09/07 09:50:39;;;;;;;0.62;0.45;;;;;;;28.75;41.03;100605.59;18493636;32;20092;-58
2022/09/07 10:01:06;;;;;;;0.32;0.20;;;;;;;29.40;40.69;100598.91;18493682;32;20117;-58
2022/09/07 10:11:42;;;;;;;0.20;0.20;;;;;;;29.15;39.99;100580.19;18492616;32;20203;-57
2022/09/07 10:22:22;;;;;;;0.37;0.37;;;;;;;29.34;41.14;100573.38;18493164;32;20092;-58
2022/09/07 10:32:52;;;;;;;1.12;0.17;;;;;;;30.35;40.08;100572.50;18492550;32;20107;-55
2022/09/07 10:43:04;;;;;;;0.57;0.57;;;;;;;29.59;39.00;100563.34;18492722;32;20081;-55
2022/09/07 10:53:43;;;;;;;0.57;0.40;;;;;;;29.41;40.38;100563.84;18491043;32;20102;-56
2022/09/07 11:04:12;;;;;;;0.20;0.20;;;;;;;30.24;39.91;100552.72;18490854;32;20589;-55
2022/09/07 11:14:18;;;;;;;1.15;1.05;;;;;;;30.80;37.73;100545.37;18415272;32;20112;-55
2022/09/07 11:24:26;;;;;;;0.50;0.20;;;;;;;29.44;38.83;100547.50;18425073;32;20136;-55
2022/09/07 11:34:32;;;;;;;1.17;0.43;;;;;;;30.51;38.82;100532.53;18440345;32;20092;-55
2022/09/07 11:44:42;;;;;;;0.35;0.30;;;;;;;29.51;38.69;100517.44;18454384;32;20111;-55
2022/09/07 11:54:49;;;;;;;0.80;0.40;;;;;;;30.72;35.91;100499.38;18405378;32;20094;-55
2022/09/07 12:05:04;;;;;;;0.25;0.25;;;;;;;30.93;37.33;100495.84;18450304;32;20092;-55
2022/09/07 12:15:16;;;;;;;0.47;0.45;;;;;;;31.33;34.80;100478.84;18490108;32;20092;-55
2022/09/07 12:25:21;;;;;;;0.52;0.47;;;;;;;31.58;34.08;100473.91;18418799;32;20109;-55
2022/09/07 12:35:39;;;;;;;0.40;0.40;;;;;;;30.96;36.92;100479.38;18437922;32;20115;-55
2022/09/07 12:45:51;;;;;;;0.30;0.30;;;;;;;31.23;35.42;100457.22;18388823;32;20105;-55
2022/09/07 12:56:14;;;;;;;0.25;0.25;;;;;;;31.92;32.72;100446.59;18408599;32;20108;-56
2022/09/07 13:06:31;;;;;;;0.13;0.13;;;;;;;30.49;35.70;100453.72;18435403;32;20115;-55
2022/09/07 13:17:32;;;;;;;1.70;1.02;;;;;;;31.56;34.62;100427.34;18490605;32;20093;-56
2022/09/07 13:27:45;;;;;;;1.65;0.52;;;;;;;31.93;32.47;100417.75;18438593;32;20122;-55
2022/09/07 13:37:52;;;;;;;0.52;0.28;;;;;;;32.58;33.00;100411.66;18438274;32;20436;-55
2022/09/07 13:48:04;;;;;;;0.65;0.65;;;;;;;32.63;31.74;100403.13;18480457;32;20100;-55
2022/09/07 13:58:15;;;;;;;0.88;0.80;;;;;;;32.33;32.17;100392.41;18433972;32;20561;-55
2022/09/07 14:08:28;;;;;;;0.98;0.85;;;;;;;32.01;32.94;100388.19;18428770;32;20112;-55
2022/09/07 14:18:31;;;;;;;1.77;1.45;;;;;;;31.94;33.71;100377.13;18414131;32;20103;-55
2022/09/07 14:28:38;;;;;;;0.73;0.62;;;;;;;31.47;35.44;100368.84;18353507;32;20119;-56
2022/09/07 14:38:42;;;;;;;2.08;0.82;;;;;;;31.51;34.04;100378.38;18351368;32;20490;-55
2022/09/07 14:49:18;;;;;;;0.98;0.77;;;;;;;31.49;34.22;100373.13;18367315;32;20085;-55
2022/09/07 14:59:32;;;;;;;1.17;0.90;;;;;;;31.37;33.34;100369.69;18366712;32;20093;-55
2022/09/07 15:09:37;;;;;;;0.98;0.90;;;;;;;31.49;34.74;100364.16;18365935;32;20093;-55
2022/09/07 15:19:41;;;;;;;1.55;1.12;;;;;;;31.14;35.61;100366.37;18411707;32;20353;-55
2022/09/07 15:29:46;;;;;;;1.85;1.10;;;;;;;30.68;35.59;100364.09;18436695;32;20348;-55
2022/09/07 15:39:49;;;;;;;2.67;1.40;;;;;;;30.18;37.74;100372.91;18388719;32;20106;-55
2022/09/07 15:49:54;;;;;;;1.65;1.55;;;;;;;29.73;38.82;100369.44;18388034;32;20373;-55
2022/09/07 15:59:57;;;;;;;2.97;1.65;;;;;;;29.65;39.57;100371.09;18435787;32;20492;-55
2022/09/07 16:10:04;;;;;;;0.73;0.60;;;;;;;29.49;40.50;100378.56;18431876;32;20179;-55
2022/09/07 16:20:09;;;;;;;1.35;0.73;;;;;;;29.45;40.67;100377.13;18432165;32;20126;-55
2022/09/07 16:30:13;;;;;;;0.57;0.47;;;;;;;29.23;41.84;100375.31;18431793;32;20124;-55
2022/09/07 16:40:17;;;;;;;0.70;0.30;;;;;;;28.89;42.54;100370.00;18431548;32;20097;-55
2022/09/07 16:50:21;;;;;;;1.75;1.15;;;;;;;28.80;43.08;100364.38;18425265;32;20077;-55
2022/09/07 17:00:25;;;;;;;3.25;0.37;;;;;;;28.41;45.35;100354.97;18413194;32;20123;-55
2022/09/07 17:10:30;;;;;;;1.20;1.05;;;;;;;27.87;47.14;100343.84;18432595;32;20150;-55
2022/09/07 17:20:33;;;;;;;2.15;0.93;;;;;;;27.38;47.20;100349.22;18420135;32;20137;-55
2022/09/07 17:30:38;;;;;;;1.62;1.08;;;;;;;26.83;49.84;100352.25;18411130;32;20101;-56
2022/09/07 17:40:42;;;;;;;0.90;0.40;;;;;;;26.37;50.42;100345.66;18388811;32;20112;-56
2022/09/07 17:50:47;;;;;;;0.62;0.57;;;;;;;25.95;51.86;100364.53;18366212;32;20098;-56
2022/09/07 18:00:50;;;;;;;1.95;0.43;;;;;;;25.60;52.86;100381.97;18351419;32;20116;-57
2022/09/07 18:10:56;;;;;;;1.02;0.90;;;;;;;25.23;53.92;100393.22;18389894;32;20151;-56
2022/09/07 18:21:20;;;;;;;1.45;0.70;;;;;;;24.84;55.26;100401.00;18360070;32;20097;-56
2022/09/07 18:31:25;;;;;;;0.98;0.75;;;;;;;24.55;55.88;100416.09;18366117;32;20429;-56
2022/09/07 18:41:29;;;;;;;0.85;0.77;;;;;;;24.35;56.41;100412.81;18362773;32;20426;-56
2022/09/07 18:51:34;;;;;;;0.50;0.50;;;;;;;24.26;56.16;100422.25;18394861;32;20174;-55
2022/09/07 19:01:57;;;;;;;1.75;0.57;;;;;;;24.17;56.85;100404.97;18424248;32;20137;-55
2022/09/07 19:12:08;;;;;;;0.62;0.62;;;;;;;24.11;57.69;100410.69;18371206;32;20089;-55
2022/09/07 19:22:12;;;;;;;0.95;0.82;;;;;;;23.97;58.20;100408.78;18363284;32;20069;-55
2022/09/07 19:32:16;;;;;;;0.98;0.62;;;;;;;23.78;59.07;100414.31;18417313;32;20375;-55
2022/09/07 19:42:20;;;;;;;1.08;0.80;;;;;;;23.78;59.13;100411.66;18398398;32;20097;-55
2022/09/07 19:52:28;;;;;;;4.12;1.17;;;;;;;23.67;59.83;100401.62;18394527;32;20775;-55
2022/09/07 20:02:32;;;;;;;3.53;2.25;;;;;;;23.65;59.90;100393.72;18430835;32;20115;-56
2022/09/07 20:12:36;;;;;;;1.75;1.20;;;;;;;23.59;60.18;100395.88;18433982;32;20151;-56
2022/09/07 20:22:39;;;;;;;3.45;1.35;;;;;;;23.47;60.63;100387.62;18420421;32;20126;-56
2022/09/07 20:32:44;;;;;;;1.12;1.02;;;;;;;23.39;60.55;100392.56;18418201;32;20097;-55
2022/09/07 20:42:47;;;;;;;0.82;0.68;;;;;;;23.18;61.24;100389.25;18416361;32;20089;-56
2022/09/07 20:52:51;;;;;;;1.48;0.95;;;;;;;23.17;61.17;100396.34;18363358;32;20671;-56
2022/09/07 21:02:54;;;;;;;3.80;1.37;;;;;;;23.07;61.25;100393.34;18352422;32;20116;-56
2022/09/07 21:12:59;;;;;;;1.90;1.00;;;;;;;23.07;61.56;100395.16;18351049;32;20105;-56
2022/09/07 21:23:02;;;;;;;0.75;0.45;;;;;;;23.00;62.22;100389.31;18366267;32;20778;-56
2022/09/07 21:33:06;;;;;;;1.02;0.80;;;;;;;22.96;62.05;100385.94;18391248;32;20084;-56
2022/09/07 21:43:10;;;;;;;0.62;0.50;;;;;;;22.84;62.41;100391.94;18395072;32;20100;-56
2022/09/07 21:53:14;;;;;;;1.90;1.23;;;;;;;22.65;62.69;100392.94;18390922;32;20488;-56
2022/09/07 22:03:17;;;;;;;2.53;1.05;;;;;;;22.60;62.67;100386.97;18385893;32;20119;-56
2022/09/07 22:13:22;;;;;;;1.52;0.93;;;;;;;22.40;63.50;100378.22;18394384;32;20123;-56
2022/09/07 22:23:25;;;;;;;1.98;0.70;;;;;;;22.28;64.08;100394.81;18388755;32;156831;-56
2022/09/07 22:33:30;;;;;;;1.45;0.52;;;;;;;22.26;64.09;100383.41;18393572;32;20104;-56
2022/09/07 22:43:33;;;;;;;2.28;1.87;;;;;;;22.17;64.32;100382.94;18363673;32;20416;-56
2022/09/07 22:53:39;;;;;;;1.50;0.88;;;;;;;22.16;64.40;100386.53;18363863;32;20141;-56
2022/09/07 23:03:43;;;;;;;1.00;0.55;;;;;;;21.99;64.89;100378.56;18362969;32;20155;-56
2022/09/07 23:13:50;;;;;;;2.42;1.30;;;;;;;21.90;64.70;100363.94;18347760;32;20112;-56
2022/09/07 23:23:54;;;;;;;2.62;1.52;;;;;;;21.55;65.46;100354.09;18361419;32;20101;-56
2022/09/07 23:33:59;;;;;;;1.73;1.27;;;;;;;21.53;65.12;100344.47;18350300;32;20495;-56
2022/09/07 23:44:03;;;;;;;1.20;0.95;;;;;;;21.39;65.30;100338.06;18369026;32;20084;-56
2022/09/07 23:54:08;;;;;;;2.22;1.90;;;;;;;21.12;65.51;100338.44;18371121;32;20093;-56
